createdAt,value
2023-05-03T00:07:14.741Z,10.82
2023-05-03T00:15:37.682Z,10.76
2023-05-03T00:24:01.030Z,10.75
2023-05-03T00:32:24.480Z,10.62
2023-05-03T00:40:54.045Z,10.30
2023-05-03T00:49:18.198Z,10.03
2023-05-03T00:57:41.275Z,9.86
2023-05-03T01:06:22.167Z,9.67
2023-05-03T01:15:03.421Z,9.59
2023-05-03T01:23:41.994Z,9.59
2023-05-03T01:32:13.957Z,9.48
2023-05-03T01:40:50.343Z,9.36
2023-05-03T01:49:13.522Z,9.27
2023-05-03T01:57:36.420Z,9.30
2023-05-03T02:05:59.441Z,9.23
2023-05-03T02:14:25.406Z,9.08
2023-05-03T02:22:48.394Z,9.02
2023-05-03T02:31:11.564Z,9.01
2023-05-03T02:39:37.536Z,9.01
2023-05-03T02:48:00.996Z,8.94
2023-05-03T02:56:27.182Z,8.94
2023-05-03T03:04:50.331Z,8.97
2023-05-03T03:13:15.549Z,8.93
2023-05-03T03:21:38.889Z,8.86
2023-05-03T03:30:02.360Z,8.83
2023-05-03T03:38:29.339Z,8.89
2023-05-03T03:46:54.723Z,8.91
2023-05-03T03:55:19.944Z,8.86
2023-05-03T04:03:48.139Z,8.84
2023-05-03T04:12:11.682Z,8.90
2023-05-03T04:20:37.631Z,8.83
2023-05-03T04:29:04.922Z,8.80
2023-05-03T04:37:29.645Z,8.94
2023-05-03T04:45:54.691Z,9.06
2023-05-03T04:54:20.343Z,9.16
2023-05-03T05:02:46.128Z,9.22
2023-05-03T05:11:11.666Z,9.52
2023-05-03T05:19:36.395Z,9.96
2023-05-03T05:28:00.977Z,10.22
2023-05-03T05:36:25.009Z,10.13
2023-05-03T05:44:48.586Z,10.16
2023-05-03T05:53:11.870Z,10.27
2023-05-03T06:01:42.737Z,10.39
2023-05-03T06:10:07.926Z,10.78
2023-05-03T06:18:32.138Z,11.71
2023-05-03T06:26:59.096Z,12.21
2023-05-03T06:35:24.462Z,12.94
2023-05-03T06:43:47.632Z,13.63
2023-05-03T06:52:11.848Z,14.07
2023-05-03T07:00:36.061Z,14.46
2023-05-03T07:08:59.047Z,15.08
2023-05-03T07:17:23.342Z,15.39
2023-05-03T07:25:46.435Z,15.81
2023-05-03T07:34:09.330Z,15.99
2023-05-03T07:42:33.421Z,15.38
2023-05-03T07:50:56.506Z,14.63
2023-05-03T07:59:19.495Z,14.09
2023-05-03T08:07:42.540Z,13.64
2023-05-03T08:16:07.420Z,13.36
2023-05-03T08:24:30.798Z,13.25
2023-05-03T08:32:54.853Z,13.31
2023-05-03T08:41:32.588Z,13.32
2023-05-03T08:49:56.079Z,13.33
2023-05-03T08:58:19.245Z,13.58
2023-05-03T09:06:42.200Z,14.29
2023-05-03T09:15:06.937Z,14.34
2023-05-03T09:23:32.036Z,14.05
2023-05-03T09:32:06.644Z,14.06
2023-05-03T09:40:29.632Z,14.76
2023-05-03T09:48:55.948Z,14.81
2023-05-03T09:57:19.242Z,15.03
2023-05-03T10:05:52.564Z,15.12
2023-05-03T10:14:17.325Z,15.42
2023-05-03T10:23:06.173Z,15.84
2023-05-03T10:31:48.863Z,15.41
2023-05-03T10:40:14.247Z,15.60
2023-05-03T10:48:37.319Z,15.79
2023-05-03T10:57:00.321Z,15.91
2023-05-03T11:05:27.181Z,16.01
2023-05-03T11:13:55.067Z,16.20
2023-05-03T11:22:19.022Z,16.07
2023-05-03T11:30:41.997Z,16.12
2023-05-03T11:39:06.048Z,16.46
2023-05-03T11:47:29.155Z,16.59
2023-05-03T11:55:54.431Z,16.49
2023-05-03T12:04:19.057Z,16.40
2023-05-03T12:13:01.164Z,16.45
2023-05-03T12:21:43.395Z,16.40
2023-05-03T12:30:10.836Z,16.35
2023-05-03T12:38:37.046Z,16.65
2023-05-03T12:47:01.239Z,16.90
2023-05-03T12:55:27.718Z,16.97
2023-05-03T13:04:14.753Z,16.77
2023-05-03T13:12:39.088Z,16.77
2023-05-03T13:21:02.083Z,16.78
2023-05-03T13:29:25.281Z,16.72
2023-05-03T13:37:48.374Z,16.68
2023-05-03T13:46:13.034Z,16.60
2023-05-03T13:54:37.361Z,16.46
2023-05-03T14:03:01.483Z,16.58
2023-05-03T14:11:25.794Z,16.66
2023-05-03T14:19:49.063Z,16.67
2023-05-03T14:28:12.186Z,16.28
2023-05-03T14:36:38.934Z,15.99
2023-05-03T14:45:02.829Z,15.41
2023-05-03T14:53:26.599Z,14.93
2023-05-03T15:01:53.241Z,14.63
2023-05-03T15:10:17.014Z,14.37
2023-05-03T15:18:40.159Z,14.16
2023-05-03T15:27:03.286Z,13.98
2023-05-03T15:35:26.373Z,13.88
2023-05-03T15:43:49.582Z,13.85
2023-05-03T15:52:12.573Z,13.78
2023-05-03T16:00:38.053Z,13.88
2023-05-03T16:09:01.758Z,13.76
2023-05-03T16:17:25.938Z,13.41
2023-05-03T16:25:49.372Z,13.14
2023-05-03T16:34:12.900Z,12.91
2023-05-03T16:42:37.210Z,12.80
2023-05-03T16:51:01.033Z,12.69
2023-05-03T16:59:24.835Z,12.66
2023-05-03T17:07:47.778Z,12.65
2023-05-03T17:16:15.787Z,12.53
2023-05-03T17:24:38.868Z,12.36
2023-05-03T17:33:01.893Z,12.13
2023-05-03T17:41:24.867Z,11.86
2023-05-03T17:49:47.808Z,11.56
2023-05-03T17:58:10.937Z,11.23
2023-05-03T18:06:34.006Z,10.89
2023-05-03T18:14:59.967Z,10.57
2023-05-03T18:23:22.970Z,10.26
2023-05-03T18:31:46.125Z,9.92
2023-05-03T18:40:09.309Z,9.56
2023-05-03T18:56:55.596Z,8.83
2023-05-03T19:05:18.732Z,8.42
2023-05-03T19:13:45.049Z,8.05
2023-05-03T19:22:08.154Z,7.68
2023-05-03T19:30:31.097Z,7.33
2023-05-03T19:38:55.647Z,7.03
2023-05-03T19:47:19.081Z,6.82
2023-05-03T19:55:42.108Z,6.58
2023-05-03T20:04:05.166Z,6.26
2023-05-03T20:12:29.518Z,5.97
2023-05-03T20:20:52.502Z,5.78
2023-05-03T20:29:15.981Z,5.61
2023-05-03T20:37:39.756Z,5.46
2023-05-03T20:46:02.892Z,5.24
2023-05-03T20:54:25.878Z,5.03
2023-05-03T21:02:54.493Z,4.82
2023-05-03T21:11:19.263Z,4.61
2023-05-03T21:19:42.248Z,4.51
2023-05-03T21:28:05.157Z,4.43
2023-05-03T21:36:28.221Z,4.30
2023-05-03T21:44:51.529Z,4.13
2023-05-03T21:53:15.744Z,3.94
2023-05-03T22:01:38.764Z,3.70
2023-05-03T22:10:02.083Z,3.51
2023-05-03T22:18:28.333Z,3.43
2023-05-03T22:26:51.314Z,3.43
2023-05-03T22:35:15.471Z,3.37
2023-05-03T22:43:38.617Z,3.29
2023-05-03T22:52:04.248Z,3.24
2023-05-03T23:00:27.394Z,3.24
2023-05-03T23:08:50.504Z,3.23
2023-05-03T23:17:14.006Z,3.16
2023-05-03T23:25:36.920Z,2.96
2023-05-03T23:34:00.032Z,2.75
2023-05-03T23:42:23.116Z,2.67
2023-05-03T23:50:46.011Z,2.63
2023-05-03T23:59:09.157Z,2.57
